sensor_id;sensor_type;location;lat;lon;timestamp;temperature;humidity
35603;DHT22;21725;50.836;4.368;2023-07-20T09:07:01;24.20;89.70
35603;DHT22;21725;50.836;4.368;2023-07-20T09:14:09;24.20;88.10
35603;DHT22;21725;50.836;4.368;2023-07-20T09:17:50;24.10;89.10
35603;DHT22;21725;50.836;4.368;2023-07-20T09:28:58;24.20;86.00
35603;DHT22;21725;50.836;4.368;2023-07-20T09:32:28;24.50;84.90
35603;DHT22;21725;50.836;4.368;2023-07-20T09:35:52;24.40;85.10
35603;DHT22;21725;50.836;4.368;2023-07-20T09:39:13;25.00;84.00
35603;DHT22;21725;50.836;4.368;2023-07-20T09:46:08;25.40;83.40
35603;DHT22;21725;50.836;4.368;2023-07-20T09:49:20;25.50;82.30
35603;DHT22;21725;50.836;4.368;2023-07-20T09:52:50;25.60;82.80
35603;DHT22;21725;50.836;4.368;2023-07-20T09:56:22;25.60;83.20
35603;DHT22;21725;50.836;4.368;2023-07-20T09:59:46;25.00;84.10
35603;DHT22;21725;50.836;4.368;2023-07-20T10:03:31;25.20;85.10
35603;DHT22;21725;50.836;4.368;2023-07-20T10:07:10;25.40;84.00
35603;DHT22;21725;50.836;4.368;2023-07-20T10:14:24;25.80;83.10
35603;DHT22;21725;50.836;4.368;2023-07-20T10:18:15;26.10;82.60
35603;DHT22;21725;50.836;4.368;2023-07-20T10:24:51;26.30;81.30
35603;DHT22;21725;50.836;4.368;2023-07-20T10:28:17;26.50;81.10
35603;DHT22;21725;50.836;4.368;2023-07-20T10:31:35;26.90;79.80
35603;DHT22;21725;50.836;4.368;2023-07-20T10:35:18;26.50;80.30
35603;DHT22;21725;50.836;4.368;2023-07-20T10:49:21;25.60;82.10
35603;DHT22;21725;50.836;4.368;2023-07-20T11:08:41;25.70;80.70
35603;DHT22;21725;50.836;4.368;2023-07-20T11:12:11;25.30;81.60
35603;DHT22;21725;50.836;4.368;2023-07-20T11:22:46;25.80;79.30
35603;DHT22;21725;50.836;4.368;2023-07-20T11:37:34;27.00;78.30
35603;DHT22;21725;50.836;4.368;2023-07-20T11:44:57;27.00;77.70
35603;DHT22;21725;50.836;4.368;2023-07-20T11:48:59;27.10;76.90
35603;DHT22;21725;50.836;4.368;2023-07-20T11:52:30;26.80;77.10
35603;DHT22;21725;50.836;4.368;2023-07-20T12:00:27;26.50;78.00
35603;DHT22;21725;50.836;4.368;2023-07-20T12:03:44;26.70;78.50
35603;DHT22;21725;50.836;4.368;2023-07-20T12:07:09;26.80;78.60
35603;DHT22;21725;50.836;4.368;2023-07-20T12:10:28;26.80;77.90
35603;DHT22;21725;50.836;4.368;2023-07-20T12:14:10;26.50;78.20
35603;DHT22;21725;50.836;4.368;2023-07-20T12:17:28;26.50;78.30
35603;DHT22;21725;50.836;4.368;2023-07-20T12:20:37;26.70;78.30
35603;DHT22;21725;50.836;4.368;2023-07-20T12:24:01;26.90;77.70
35603;DHT22;21725;50.836;4.368;2023-07-20T12:27:17;26.90;77.90
35603;DHT22;21725;50.836;4.368;2023-07-20T12:34:25;26.60;79.30
35603;DHT22;21725;50.836;4.368;2023-07-20T12:37:39;26.50;78.70
35603;DHT22;21725;50.836;4.368;2023-07-20T12:41:10;26.70;78.40
35603;DHT22;21725;50.836;4.368;2023-07-20T12:44:56;26.90;78.00
35603;DHT22;21725;50.836;4.368;2023-07-20T12:48:36;27.00;77.90
35603;DHT22;21725;50.836;4.368;2023-07-20T12:52:16;26.70;78.30
35603;DHT22;21725;50.836;4.368;2023-07-20T12:55:26;26.70;78.50
35603;DHT22;21725;50.836;4.368;2023-07-20T12:58:57;26.50;78.40
35603;DHT22;21725;50.836;4.368;2023-07-20T13:02:25;26.40;79.20
35603;DHT22;21725;50.836;4.368;2023-07-20T13:05:42;26.30;79.10
35603;DHT22;21725;50.836;4.368;2023-07-20T13:09:10;26.10;79.10
35603;DHT22;21725;50.836;4.368;2023-07-20T13:12:49;26.10;79.20
35603;DHT22;21725;50.836;4.368;2023-07-20T13:16:06;25.90;79.30
35603;DHT22;21725;50.836;4.368;2023-07-20T13:19:33;25.90;79.80
35603;DHT22;21725;50.836;4.368;2023-07-20T13:23:13;25.90;79.80
35603;DHT22;21725;50.836;4.368;2023-07-20T13:29:42;25.80;83.80
35603;DHT22;21725;50.836;4.368;2023-07-20T13:32:53;25.00;82.30
35603;DHT22;21725;50.836;4.368;2023-07-20T13:36:07;25.00;86.20
35603;DHT22;21725;50.836;4.368;2023-07-20T13:39:31;25.00;84.30
35603;DHT22;21725;50.836;4.368;2023-07-20T13:46:59;24.30;85.10
35603;DHT22;21725;50.836;4.368;2023-07-20T13:50:31;24.20;85.50
35603;DHT22;21725;50.836;4.368;2023-07-20T14:14:51;23.70;86.40
35603;DHT22;21725;50.836;4.368;2023-07-20T14:22:18;24.30;86.00
35603;DHT22;21725;50.836;4.368;2023-07-20T14:28:50;24.80;84.80
35603;DHT22;21725;50.836;4.368;2023-07-20T14:32:09;24.80;84.10
35603;DHT22;21725;50.836;4.368;2023-07-20T14:35:28;25.00;83.10
35603;DHT22;21725;50.836;4.368;2023-07-20T14:43:03;24.50;84.20
35603;DHT22;21725;50.836;4.368;2023-07-20T14:46:34;24.40;84.60
35603;DHT22;21725;50.836;4.368;2023-07-20T15:00:28;24.60;84.60
35603;DHT22;21725;50.836;4.368;2023-07-20T15:03:54;24.60;84.40
35603;DHT22;21725;50.836;4.368;2023-07-20T15:07:22;24.90;83.80
35603;DHT22;21725;50.836;4.368;2023-07-20T15:10:30;24.80;83.10
35603;DHT22;21725;50.836;4.368;2023-07-20T15:14:09;24.70;83.80
35603;DHT22;21725;50.836;4.368;2023-07-20T15:17:31;24.80;83.40
35603;DHT22;21725;50.836;4.368;2023-07-20T15:20:41;24.60;82.90
35603;DHT22;21725;50.836;4.368;2023-07-20T15:31:55;24.10;84.00
35603;DHT22;21725;50.836;4.368;2023-07-20T15:35:16;23.90;84.30
35603;DHT22;21725;50.836;4.368;2023-07-20T15:38:42;24.00;84.00
35603;DHT22;21725;50.836;4.368;2023-07-20T15:46:50;23.60;86.50
35603;DHT22;21725;50.836;4.368;2023-07-20T15:53:36;23.10;91.20
35603;DHT22;21725;50.836;4.368;2023-07-20T15:56:58;22.00;94.60
35603;DHT22;21725;50.836;4.368;2023-07-20T16:00:14;21.00;97.40
35603;DHT22;21725;50.836;4.368;2023-07-20T16:03:25;20.40;99.90
35603;DHT22;21725;50.836;4.368;2023-07-20T16:06:36;20.20;99.90
35603;DHT22;21725;50.836;4.368;2023-07-20T16:10:07;19.90;99.90
35603;DHT22;21725;50.836;4.368;2023-07-20T16:17:34;19.30;99.90
35603;DHT22;21725;50.836;4.368;2023-07-20T16:21:17;18.70;99.90
35603;DHT22;21725;50.836;4.368;2023-07-20T16:28:29;19.30;99.90
35603;DHT22;21725;50.836;4.368;2023-07-20T16:31:30;18.80;99.90
35603;DHT22;21725;50.836;4.368;2023-07-20T16:35:14;18.60;99.90
35603;DHT22;21725;50.836;4.368;2023-07-20T16:45:57;19.00;99.90
35603;DHT22;21725;50.836;4.368;2023-07-20T16:49:16;19.00;99.90
35603;DHT22;21725;50.836;4.368;2023-07-20T16:52:46;19.40;99.90
35603;DHT22;21725;50.836;4.368;2023-07-20T16:59:54;19.40;99.90
35603;DHT22;21725;50.836;4.368;2023-07-20T17:03:22;19.50;99.90
35603;DHT22;21725;50.836;4.368;2023-07-20T17:06:54;19.60;99.90
35603;DHT22;21725;50.836;4.368;2023-07-20T17:10:22;19.80;99.90
35603;DHT22;21725;50.836;4.368;2023-07-20T17:17:46;20.30;99.90
35603;DHT22;21725;50.836;4.368;2023-07-20T17:21:00;20.40;99.90
35603;DHT22;21725;50.836;4.368;2023-07-20T17:24:24;20.50;99.90
35603;DHT22;21725;50.836;4.368;2023-07-20T17:31:03;20.50;99.90
35603;DHT22;21725;50.836;4.368;2023-07-20T17:34:28;20.40;99.90
35603;DHT22;21725;50.836;4.368;2023-07-20T17:37:51;20.40;99.90
35603;DHT22;21725;50.836;4.368;2023-07-20T17:41:21;20.40;99.90
35603;DHT22;21725;50.836;4.368;2023-07-20T17:45:02;20.70;99.90
35603;DHT22;21725;50.836;4.368;2023-07-20T17:48:12;20.90;99.90
35603;DHT22;21725;50.836;4.368;2023-07-20T17:51:43;21.30;99.90
35603;DHT22;21725;50.836;4.368;2023-07-20T17:55:13;21.30;99.90
35603;DHT22;21725;50.836;4.368;2023-07-20T17:58:40;21.10;99.90
35603;DHT22;21725;50.836;4.368;2023-07-20T18:05:04;21.30;99.90
35603;DHT22;21725;50.836;4.368;2023-07-20T18:08:06;21.70;99.90
35603;DHT22;21725;50.836;4.368;2023-07-20T18:11:07;21.60;99.90
35603;DHT22;21725;50.836;4.368;2023-07-20T18:14:09;21.50;99.90
35603;DHT22;21725;50.836;4.368;2023-07-20T18:17:10;21.40;99.90
35603;DHT22;21725;50.836;4.368;2023-07-20T18:20:11;21.20;99.90
35603;DHT22;21725;50.836;4.368;2023-07-20T18:23:12;20.90;99.90
35603;DHT22;21725;50.836;4.368;2023-07-20T18:26:12;20.90;99.90
35603;DHT22;21725;50.836;4.368;2023-07-20T18:29:14;21.00;99.90
35603;DHT22;21725;50.836;4.368;2023-07-20T18:32:15;21.20;99.90
35603;DHT22;21725;50.836;4.368;2023-07-20T18:35:15;21.30;99.90
35603;DHT22;21725;50.836;4.368;2023-07-20T18:38:39;21.30;99.90
35603;DHT22;21725;50.836;4.368;2023-07-20T18:41:44;21.20;99.90
35603;DHT22;21725;50.836;4.368;2023-07-20T18:48:48;21.10;99.90
35603;DHT22;21725;50.836;4.368;2023-07-20T18:52:15;21.20;99.90
35603;DHT22;21725;50.836;4.368;2023-07-20T18:55:27;21.10;99.90
35603;DHT22;21725;50.836;4.368;2023-07-20T19:30:57;20.80;99.90
35603;DHT22;21725;50.836;4.368;2023-07-20T19:34:09;20.50;99.90
35603;DHT22;21725;50.836;4.368;2023-07-20T19:37:18;20.40;99.90
35603;DHT22;21725;50.836;4.368;2023-07-20T19:44:26;20.50;99.90
35603;DHT22;21725;50.836;4.368;2023-07-20T19:47:59;20.30;99.90
35603;DHT22;21725;50.836;4.368;2023-07-20T19:51:20;20.20;99.90
35603;DHT22;21725;50.836;4.368;2023-07-20T19:54:52;20.40;99.90
35603;DHT22;21725;50.836;4.368;2023-07-20T19:58:06;20.30;99.90
35603;DHT22;21725;50.836;4.368;2023-07-20T20:08:17;20.70;99.90
35603;DHT22;21725;50.836;4.368;2023-07-20T20:11:45;20.60;99.90
35603;DHT22;21725;50.836;4.368;2023-07-20T20:14:58;20.60;99.90
35603;DHT22;21725;50.836;4.368;2023-07-20T20:18:37;20.70;99.90
35603;DHT22;21725;50.836;4.368;2023-07-20T20:21:54;20.60;99.90
35603;DHT22;21725;50.836;4.368;2023-07-20T20:25:04;20.80;99.90
35603;DHT22;21725;50.836;4.368;2023-07-20T20:28:35;20.70;99.90
35603;DHT22;21725;50.836;4.368;2023-07-20T20:32:16;20.60;99.90
35603;DHT22;21725;50.836;4.368;2023-07-20T20:35:42;20.50;99.90
35603;DHT22;21725;50.836;4.368;2023-07-20T20:39:15;20.70;99.90
35603;DHT22;21725;50.836;4.368;2023-07-20T20:46:12;20.70;99.90
35603;DHT22;21725;50.836;4.368;2023-07-20T20:49:45;20.40;99.90
35603;DHT22;21725;50.836;4.368;2023-07-20T20:57:00;20.60;99.90
35603;DHT22;21725;50.836;4.368;2023-07-20T21:00:04;20.60;99.90
35603;DHT22;21725;50.836;4.368;2023-07-20T21:03:39;20.50;99.90
35603;DHT22;21725;50.836;4.368;2023-07-20T21:10:11;20.40;99.90
35603;DHT22;21725;50.836;4.368;2023-07-20T21:13:17;20.60;99.90
35603;DHT22;21725;50.836;4.368;2023-07-20T21:16:26;20.70;99.90
35603;DHT22;21725;50.836;4.368;2023-07-20T21:20:02;20.60;99.90
35603;DHT22;21725;50.836;4.368;2023-07-20T21:23:48;20.30;99.90
35603;DHT22;21725;50.836;4.368;2023-07-20T21:42:30;20.40;99.90
35603;DHT22;21725;50.836;4.368;2023-07-20T21:45:46;20.00;99.90
35603;DHT22;21725;50.836;4.368;2023-07-20T21:49:09;20.10;99.90
35603;DHT22;21725;50.836;4.368;2023-07-20T21:52:33;20.20;99.90
35603;DHT22;21725;50.836;4.368;2023-07-20T21:55:44;20.20;99.90
35603;DHT22;21725;50.836;4.368;2023-07-20T21:58:57;20.20;99.90
35603;DHT22;21725;50.836;4.368;2023-07-20T22:02:11;20.00;99.90
35603;DHT22;21725;50.836;4.368;2023-07-20T22:05:25;20.30;99.90
35603;DHT22;21725;50.836;4.368;2023-07-20T22:08:46;20.30;99.90
35603;DHT22;21725;50.836;4.368;2023-07-20T22:11:59;20.20;99.90
35603;DHT22;21725;50.836;4.368;2023-07-20T22:15:14;20.20;99.90
35603;DHT22;21725;50.836;4.368;2023-07-20T22:22:43;20.20;99.90
35603;DHT22;21725;50.836;4.368;2023-07-20T22:26:09;20.10;99.90
35603;DHT22;21725;50.836;4.368;2023-07-20T22:29:15;19.90;99.90
35603;DHT22;21725;50.836;4.368;2023-07-20T22:33:05;20.30;99.90
35603;DHT22;21725;50.836;4.368;2023-07-20T22:36:23;20.20;99.90
35603;DHT22;21725;50.836;4.368;2023-07-20T22:40:07;20.10;99.90
35603;DHT22;21725;50.836;4.368;2023-07-20T22:43:31;20.30;99.90
35603;DHT22;21725;50.836;4.368;2023-07-20T22:47:00;20.00;99.90
35603;DHT22;21725;50.836;4.368;2023-07-20T22:58:15;20.00;99.90
35603;DHT22;21725;50.836;4.368;2023-07-20T23:05:27;19.80;99.90
35603;DHT22;21725;50.836;4.368;2023-07-20T23:09:26;19.70;99.90
35603;DHT22;21725;50.836;4.368;2023-07-20T23:12:55;19.80;99.90
35603;DHT22;21725;50.836;4.368;2023-07-20T23:16:09;19.80;99.90
35603;DHT22;21725;50.836;4.368;2023-07-20T23:19:51;19.80;99.90
35603;DHT22;21725;50.836;4.368;2023-07-20T23:23:01;19.70;99.90
35603;DHT22;21725;50.836;4.368;2023-07-20T23:26:32;19.50;99.90
35603;DHT22;21725;50.836;4.368;2023-07-20T23:29:43;19.30;99.90
35603;DHT22;21725;50.836;4.368;2023-07-20T23:33:10;19.40;99.90
35603;DHT22;21725;50.836;4.368;2023-07-20T23:40:32;19.90;99.90
35603;DHT22;21725;50.836;4.368;2023-07-20T23:43:53;19.90;99.90
35603;DHT22;21725;50.836;4.368;2023-07-20T23:47:37;19.60;99.90
